sensor_id;sensor_type;location;lat;lon;timestamp;P1;durP1;ratioP1;P2;durP2;ratioP2
70761;SDS011;58360;0.000;0.000;2022-12-11T00:01:32;29.70;;;14.20;;
70761;SDS011;58360;0.000;0.000;2022-12-11T00:03:58;26.92;;;14.18;;
70761;SDS011;58360;0.000;0.000;2022-12-11T00:06:23;28.88;;;14.45;;
70761;SDS011;58360;0.000;0.000;2022-12-11T00:08:53;28.15;;;13.82;;
70761;SDS011;58360;0.000;0.000;2022-12-11T00:11:20;24.85;;;13.75;;
70761;SDS011;58360;0.000;0.000;2022-12-11T00:13:46;27.67;;;13.88;;
70761;SDS011;58360;0.000;0.000;2022-12-11T00:16:12;27.13;;;13.93;;
70761;SDS011;58360;0.000;0.000;2022-12-11T00:18:38;28.45;;;14.25;;
70761;SDS011;58360;0.000;0.000;2022-12-11T00:21:04;33.30;;;14.50;;
70761;SDS011;58360;0.000;0.000;2022-12-11T00:23:35;27.42;;;13.77;;
70761;SDS011;58360;0.000;0.000;2022-12-11T00:26:05;30.50;;;14.48;;
70761;SDS011;58360;0.000;0.000;2022-12-11T00:28:33;28.15;;;14.60;;
70761;SDS011;58360;0.000;0.000;2022-12-11T00:31:03;28.52;;;15.48;;
70761;SDS011;58360;0.000;0.000;2022-12-11T00:33:29;29.02;;;14.45;;
70761;SDS011;58360;0.000;0.000;2022-12-11T00:35:55;26.02;;;13.85;;
70761;SDS011;58360;0.000;0.000;2022-12-11T00:38:21;28.55;;;14.38;;
70761;SDS011;58360;0.000;0.000;2022-12-11T00:40:48;26.35;;;14.25;;
70761;SDS011;58360;0.000;0.000;2022-12-11T00:43:14;26.95;;;12.95;;
70761;SDS011;58360;0.000;0.000;2022-12-11T00:45:40;25.13;;;12.23;;
70761;SDS011;58360;0.000;0.000;2022-12-11T00:48:08;26.75;;;13.23;;
70761;SDS011;58360;0.000;0.000;2022-12-11T00:50:35;27.33;;;13.88;;
70761;SDS011;58360;0.000;0.000;2022-12-11T00:53:01;32.33;;;13.80;;
70761;SDS011;58360;0.000;0.000;2022-12-11T00:55:28;27.25;;;14.07;;
70761;SDS011;58360;0.000;0.000;2022-12-11T00:57:54;29.30;;;13.30;;
70761;SDS011;58360;0.000;0.000;2022-12-11T01:00:21;30.02;;;13.75;;
70761;SDS011;58360;0.000;0.000;2022-12-11T01:02:47;25.90;;;13.55;;
70761;SDS011;58360;0.000;0.000;2022-12-11T01:05:13;28.48;;;14.60;;
70761;SDS011;58360;0.000;0.000;2022-12-11T01:07:39;26.90;;;13.48;;
70761;SDS011;58360;0.000;0.000;2022-12-11T01:10:05;28.50;;;13.27;;
70761;SDS011;58360;0.000;0.000;2022-12-11T01:12:50;28.17;;;13.90;;
70761;SDS011;58360;0.000;0.000;2022-12-11T01:15:21;28.50;;;14.07;;
70761;SDS011;58360;0.000;0.000;2022-12-11T01:17:49;33.05;;;13.63;;
70761;SDS011;58360;0.000;0.000;2022-12-11T01:20:15;32.80;;;15.15;;
70761;SDS011;58360;0.000;0.000;2022-12-11T01:22:43;25.67;;;13.07;;
70761;SDS011;58360;0.000;0.000;2022-12-11T01:25:09;27.25;;;13.55;;
70761;SDS011;58360;0.000;0.000;2022-12-11T01:27:35;26.85;;;13.85;;
70761;SDS011;58360;0.000;0.000;2022-12-11T01:30:03;29.13;;;13.65;;
70761;SDS011;58360;0.000;0.000;2022-12-11T01:32:32;26.45;;;13.77;;
70761;SDS011;58360;0.000;0.000;2022-12-11T01:34:58;25.02;;;12.55;;
70761;SDS011;58360;0.000;0.000;2022-12-11T01:37:24;28.55;;;13.68;;
70761;SDS011;58360;0.000;0.000;2022-12-11T01:39:50;25.08;;;12.77;;
70761;SDS011;58360;0.000;0.000;2022-12-11T01:42:16;27.23;;;13.30;;
70761;SDS011;58360;0.000;0.000;2022-12-11T01:47:09;27.92;;;13.45;;
70761;SDS011;58360;0.000;0.000;2022-12-11T01:49:35;28.42;;;13.88;;
70761;SDS011;58360;0.000;0.000;2022-12-11T01:52:12;28.48;;;13.48;;
70761;SDS011;58360;0.000;0.000;2022-12-11T01:54:43;28.77;;;13.52;;
70761;SDS011;58360;0.000;0.000;2022-12-11T01:57:09;26.48;;;13.02;;
70761;SDS011;58360;0.000;0.000;2022-12-11T01:59:38;28.73;;;13.48;;
70761;SDS011;58360;0.000;0.000;2022-12-11T02:02:11;29.13;;;13.55;;
70761;SDS011;58360;0.000;0.000;2022-12-11T02:04:43;26.23;;;13.00;;
70761;SDS011;58360;0.000;0.000;2022-12-11T02:07:09;27.40;;;13.70;;
70761;SDS011;58360;0.000;0.000;2022-12-11T02:09:36;27.60;;;13.70;;
70761;SDS011;58360;0.000;0.000;2022-12-11T02:12:11;30.40;;;14.73;;
70761;SDS011;58360;0.000;0.000;2022-12-11T02:20:36;27.50;;;12.80;;
70761;SDS011;58360;0.000;0.000;2022-12-11T02:28:32;25.92;;;13.10;;
70761;SDS011;58360;0.000;0.000;2022-12-11T02:31:40;25.33;;;11.85;;
70761;SDS011;58360;0.000;0.000;2022-12-11T02:34:16;24.05;;;12.43;;
70761;SDS011;58360;0.000;0.000;2022-12-11T02:36:48;25.42;;;12.18;;
70761;SDS011;58360;0.000;0.000;2022-12-11T02:39:18;27.45;;;13.77;;
70761;SDS011;58360;0.000;0.000;2022-12-11T02:41:47;25.20;;;12.23;;
70761;SDS011;58360;0.000;0.000;2022-12-11T02:44:15;25.17;;;12.85;;
70761;SDS011;58360;0.000;0.000;2022-12-11T02:46:45;25.15;;;12.93;;
70761;SDS011;58360;0.000;0.000;2022-12-11T02:49:11;24.95;;;12.65;;
70761;SDS011;58360;0.000;0.000;2022-12-11T02:51:39;29.02;;;12.60;;
70761;SDS011;58360;0.000;0.000;2022-12-11T02:54:06;26.45;;;13.02;;
70761;SDS011;58360;0.000;0.000;2022-12-11T02:56:43;24.02;;;12.55;;
70761;SDS011;58360;0.000;0.000;2022-12-11T02:59:36;34.17;;;13.85;;
70761;SDS011;58360;0.000;0.000;2022-12-11T03:02:05;23.77;;;11.93;;
70761;SDS011;58360;0.000;0.000;2022-12-11T03:04:32;26.25;;;13.63;;
70761;SDS011;58360;0.000;0.000;2022-12-11T03:07:02;28.17;;;12.95;;
70761;SDS011;58360;0.000;0.000;2022-12-11T03:09:36;27.00;;;12.98;;
70761;SDS011;58360;0.000;0.000;2022-12-11T03:12:03;26.77;;;13.18;;
70761;SDS011;58360;0.000;0.000;2022-12-11T03:14:30;29.13;;;14.02;;
70761;SDS011;58360;0.000;0.000;2022-12-11T03:16:59;32.28;;;13.85;;
70761;SDS011;58360;0.000;0.000;2022-12-11T03:19:49;28.42;;;13.48;;
70761;SDS011;58360;0.000;0.000;2022-12-11T03:25:00;31.25;;;15.38;;
70761;SDS011;58360;0.000;0.000;2022-12-11T03:33:02;29.75;;;14.10;;
70761;SDS011;58360;0.000;0.000;2022-12-11T03:37:56;26.40;;;14.50;;
70761;SDS011;58360;0.000;0.000;2022-12-11T03:40:27;27.15;;;13.27;;
70761;SDS011;58360;0.000;0.000;2022-12-11T03:42:57;27.35;;;13.93;;
70761;SDS011;58360;0.000;0.000;2022-12-11T03:45:24;34.30;;;15.10;;
70761;SDS011;58360;0.000;0.000;2022-12-11T03:47:51;32.63;;;15.15;;
70761;SDS011;58360;0.000;0.000;2022-12-11T03:50:20;28.08;;;14.65;;
70761;SDS011;58360;0.000;0.000;2022-12-11T03:52:46;28.65;;;14.20;;
70761;SDS011;58360;0.000;0.000;2022-12-11T03:55:13;33.53;;;15.40;;
70761;SDS011;58360;0.000;0.000;2022-12-11T03:57:41;32.63;;;15.80;;
70761;SDS011;58360;0.000;0.000;2022-12-11T04:00:08;32.33;;;15.63;;
70761;SDS011;58360;0.000;0.000;2022-12-11T04:02:36;26.75;;;13.95;;
70761;SDS011;58360;0.000;0.000;2022-12-11T04:05:02;34.67;;;15.85;;
70761;SDS011;58360;0.000;0.000;2022-12-11T04:07:28;28.13;;;14.93;;
70761;SDS011;58360;0.000;0.000;2022-12-11T04:09:55;29.25;;;14.65;;
70761;SDS011;58360;0.000;0.000;2022-12-11T04:12:21;30.70;;;14.38;;
70761;SDS011;58360;0.000;0.000;2022-12-11T04:14:47;30.70;;;14.02;;
70761;SDS011;58360;0.000;0.000;2022-12-11T04:17:31;27.27;;;14.77;;
70761;SDS011;58360;0.000;0.000;2022-12-11T04:20:17;29.98;;;14.60;;
70761;SDS011;58360;0.000;0.000;2022-12-11T04:23:03;30.88;;;14.38;;
70761;SDS011;58360;0.000;0.000;2022-12-11T04:25:54;30.05;;;13.55;;
70761;SDS011;58360;0.000;0.000;2022-12-11T04:28:27;29.13;;;13.98;;
70761;SDS011;58360;0.000;0.000;2022-12-11T04:30:53;30.17;;;14.32;;
70761;SDS011;58360;0.000;0.000;2022-12-11T04:33:18;28.23;;;14.20;;
70761;SDS011;58360;0.000;0.000;2022-12-11T04:35:44;28.17;;;14.57;;
70761;SDS011;58360;0.000;0.000;2022-12-11T04:38:09;27.50;;;13.82;;
70761;SDS011;58360;0.000;0.000;2022-12-11T04:40:35;29.73;;;15.13;;
70761;SDS011;58360;0.000;0.000;2022-12-11T04:43:01;30.38;;;14.60;;
70761;SDS011;58360;0.000;0.000;2022-12-11T04:45:26;30.88;;;14.38;;
70761;SDS011;58360;0.000;0.000;2022-12-11T04:47:52;30.08;;;14.65;;
70761;SDS011;58360;0.000;0.000;2022-12-11T04:50:18;31.23;;;15.20;;
70761;SDS011;58360;0.000;0.000;2022-12-11T04:52:43;30.33;;;15.07;;
70761;SDS011;58360;0.000;0.000;2022-12-11T04:55:09;31.70;;;15.98;;
70761;SDS011;58360;0.000;0.000;2022-12-11T04:57:36;29.05;;;13.98;;
70761;SDS011;58360;0.000;0.000;2022-12-11T05:00:03;31.48;;;15.10;;
70761;SDS011;58360;0.000;0.000;2022-12-11T05:02:33;30.60;;;15.80;;
70761;SDS011;58360;0.000;0.000;2022-12-11T05:04:59;35.53;;;15.95;;
70761;SDS011;58360;0.000;0.000;2022-12-11T05:07:27;28.35;;;14.85;;
70761;SDS011;58360;0.000;0.000;2022-12-11T05:09:52;33.75;;;15.38;;
70761;SDS011;58360;0.000;0.000;2022-12-11T05:12:18;32.80;;;15.93;;
70761;SDS011;58360;0.000;0.000;2022-12-11T05:14:44;33.90;;;15.88;;
70761;SDS011;58360;0.000;0.000;2022-12-11T05:17:09;35.97;;;17.27;;
70761;SDS011;58360;0.000;0.000;2022-12-11T05:19:35;33.55;;;15.93;;
70761;SDS011;58360;0.000;0.000;2022-12-11T05:22:01;30.30;;;15.85;;
70761;SDS011;58360;0.000;0.000;2022-12-11T05:24:27;36.65;;;17.17;;
70761;SDS011;58360;0.000;0.000;2022-12-11T05:26:52;32.97;;;16.42;;
70761;SDS011;58360;0.000;0.000;2022-12-11T05:29:18;34.53;;;17.02;;
70761;SDS011;58360;0.000;0.000;2022-12-11T05:31:44;32.15;;;15.98;;
70761;SDS011;58360;0.000;0.000;2022-12-11T05:34:09;35.72;;;17.52;;
70761;SDS011;58360;0.000;0.000;2022-12-11T05:36:35;35.25;;;17.50;;
70761;SDS011;58360;0.000;0.000;2022-12-11T05:39:02;31.90;;;15.82;;
70761;SDS011;58360;0.000;0.000;2022-12-11T05:41:29;31.73;;;16.52;;
70761;SDS011;58360;0.000;0.000;2022-12-11T05:43:56;31.13;;;16.15;;
70761;SDS011;58360;0.000;0.000;2022-12-11T05:46:23;34.97;;;16.35;;
70761;SDS011;58360;0.000;0.000;2022-12-11T05:48:51;34.70;;;16.83;;
70761;SDS011;58360;0.000;0.000;2022-12-11T05:51:20;42.10;;;17.80;;
70761;SDS011;58360;0.000;0.000;2022-12-11T05:53:48;33.58;;;16.83;;
70761;SDS011;58360;0.000;0.000;2022-12-11T05:56:16;37.95;;;18.67;;
70761;SDS011;58360;0.000;0.000;2022-12-11T05:58:45;42.42;;;19.60;;
70761;SDS011;58360;0.000;0.000;2022-12-11T06:01:12;37.47;;;17.58;;
70761;SDS011;58360;0.000;0.000;2022-12-11T06:03:41;43.00;;;18.38;;
70761;SDS011;58360;0.000;0.000;2022-12-11T06:06:06;44.88;;;19.10;;
70761;SDS011;58360;0.000;0.000;2022-12-11T06:08:33;43.92;;;18.77;;
70761;SDS011;58360;0.000;0.000;2022-12-11T06:10:59;41.92;;;17.33;;
70761;SDS011;58360;0.000;0.000;2022-12-11T06:13:25;42.55;;;18.00;;
70761;SDS011;58360;0.000;0.000;2022-12-11T06:15:51;39.55;;;17.60;;
70761;SDS011;58360;0.000;0.000;2022-12-11T06:18:17;46.70;;;18.95;;
70761;SDS011;58360;0.000;0.000;2022-12-11T06:20:43;43.92;;;17.67;;
70761;SDS011;58360;0.000;0.000;2022-12-11T06:23:08;34.17;;;16.83;;
70761;SDS011;58360;0.000;0.000;2022-12-11T06:25:34;42.42;;;17.25;;
70761;SDS011;58360;0.000;0.000;2022-12-11T06:28:03;41.78;;;19.13;;
70761;SDS011;58360;0.000;0.000;2022-12-11T06:30:28;41.88;;;17.40;;
70761;SDS011;58360;0.000;0.000;2022-12-11T06:32:54;39.72;;;18.60;;
70761;SDS011;58360;0.000;0.000;2022-12-11T06:35:21;40.08;;;18.35;;
70761;SDS011;58360;0.000;0.000;2022-12-11T06:37:47;39.00;;;18.27;;
70761;SDS011;58360;0.000;0.000;2022-12-11T06:40:13;46.42;;;18.88;;
70761;SDS011;58360;0.000;0.000;2022-12-11T06:42:39;41.58;;;18.30;;
70761;SDS011;58360;0.000;0.000;2022-12-11T06:45:05;43.72;;;17.50;;
70761;SDS011;58360;0.000;0.000;2022-12-11T06:47:31;40.60;;;17.35;;
70761;SDS011;58360;0.000;0.000;2022-12-11T06:49:57;38.45;;;17.88;;
70761;SDS011;58360;0.000;0.000;2022-12-11T06:52:23;39.80;;;19.27;;
70761;SDS011;58360;0.000;0.000;2022-12-11T06:54:50;39.90;;;18.20;;
70761;SDS011;58360;0.000;0.000;2022-12-11T06:57:16;42.90;;;17.73;;
70761;SDS011;58360;0.000;0.000;2022-12-11T06:59:42;38.38;;;18.25;;
70761;SDS011;58360;0.000;0.000;2022-12-11T07:02:10;40.83;;;17.13;;
70761;SDS011;58360;0.000;0.000;2022-12-11T07:04:38;42.67;;;18.50;;
70761;SDS011;58360;0.000;0.000;2022-12-11T07:07:04;43.55;;;18.95;;
70761;SDS011;58360;0.000;0.000;2022-12-11T07:09:30;45.58;;;18.27;;
70761;SDS011;58360;0.000;0.000;2022-12-11T07:11:56;44.28;;;17.35;;
70761;SDS011;58360;0.000;0.000;2022-12-11T07:14:22;42.30;;;17.67;;
70761;SDS011;58360;0.000;0.000;2022-12-11T07:16:47;41.83;;;18.27;;
70761;SDS011;58360;0.000;0.000;2022-12-11T07:19:13;42.85;;;16.90;;
70761;SDS011;58360;0.000;0.000;2022-12-11T07:21:39;45.42;;;17.65;;
70761;SDS011;58360;0.000;0.000;2022-12-11T07:24:05;36.15;;;16.67;;
70761;SDS011;58360;0.000;0.000;2022-12-11T07:26:31;40.80;;;17.77;;
70761;SDS011;58360;0.000;0.000;2022-12-11T07:28:57;41.00;;;17.25;;
70761;SDS011;58360;0.000;0.000;2022-12-11T07:31:25;45.22;;;17.75;;
70761;SDS011;58360;0.000;0.000;2022-12-11T07:33:55;44.35;;;18.17;;
70761;SDS011;58360;0.000;0.000;2022-12-11T07:36:22;39.38;;;16.90;;
70761;SDS011;58360;0.000;0.000;2022-12-11T07:38:49;36.75;;;17.15;;
70761;SDS011;58360;0.000;0.000;2022-12-11T07:41:15;39.58;;;16.90;;
70761;SDS011;58360;0.000;0.000;2022-12-11T07:43:42;41.08;;;16.63;;
70761;SDS011;58360;0.000;0.000;2022-12-11T07:46:15;39.25;;;16.70;;
70761;SDS011;58360;0.000;0.000;2022-12-11T07:48:45;37.22;;;17.25;;
70761;SDS011;58360;0.000;0.000;2022-12-11T07:51:12;40.08;;;17.10;;
70761;SDS011;58360;0.000;0.000;2022-12-11T07:53:41;39.63;;;17.30;;
70761;SDS011;58360;0.000;0.000;2022-12-11T07:56:10;41.67;;;17.48;;
70761;SDS011;58360;0.000;0.000;2022-12-11T07:58:36;47.22;;;18.48;;
70761;SDS011;58360;0.000;0.000;2022-12-11T08:01:03;42.58;;;18.02;;
70761;SDS011;58360;0.000;0.000;2022-12-11T08:03:30;41.00;;;18.80;;
70761;SDS011;58360;0.000;0.000;2022-12-11T08:05:55;39.88;;;17.45;;
70761;SDS011;58360;0.000;0.000;2022-12-11T08:08:21;37.45;;;16.27;;
70761;SDS011;58360;0.000;0.000;2022-12-11T08:10:47;43.60;;;18.50;;
70761;SDS011;58360;0.000;0.000;2022-12-11T08:13:12;37.83;;;17.85;;
70761;SDS011;58360;0.000;0.000;2022-12-11T08:15:38;41.55;;;18.55;;
70761;SDS011;58360;0.000;0.000;2022-12-11T08:18:04;40.55;;;17.23;;
70761;SDS011;58360;0.000;0.000;2022-12-11T08:20:29;40.38;;;18.73;;
70761;SDS011;58360;0.000;0.000;2022-12-11T08:22:55;49.60;;;19.17;;
70761;SDS011;58360;0.000;0.000;2022-12-11T08:25:21;39.53;;;18.08;;
70761;SDS011;58360;0.000;0.000;2022-12-11T08:27:48;37.50;;;17.98;;
70761;SDS011;58360;0.000;0.000;2022-12-11T08:30:13;36.00;;;17.10;;
70761;SDS011;58360;0.000;0.000;2022-12-11T08:32:39;37.28;;;18.30;;
70761;SDS011;58360;0.000;0.000;2022-12-11T08:35:05;38.75;;;18.63;;
70761;SDS011;58360;0.000;0.000;2022-12-11T08:37:32;42.83;;;19.40;;
70761;SDS011;58360;0.000;0.000;2022-12-11T08:39:58;35.85;;;18.63;;
70761;SDS011;58360;0.000;0.000;2022-12-11T08:42:24;36.80;;;17.45;;
70761;SDS011;58360;0.000;0.000;2022-12-11T08:44:50;42.40;;;19.38;;
70761;SDS011;58360;0.000;0.000;2022-12-11T08:47:16;43.50;;;19.95;;
70761;SDS011;58360;0.000;0.000;2022-12-11T08:49:42;39.70;;;19.75;;
70761;SDS011;58360;0.000;0.000;2022-12-11T08:52:07;41.45;;;19.65;;
70761;SDS011;58360;0.000;0.000;2022-12-11T08:54:33;35.92;;;18.30;;
70761;SDS011;58360;0.000;0.000;2022-12-11T08:57:00;40.58;;;19.13;;
70761;SDS011;58360;0.000;0.000;2022-12-11T08:59:26;39.97;;;19.63;;
70761;SDS011;58360;0.000;0.000;2022-12-11T09:01:53;36.85;;;18.17;;
70761;SDS011;58360;0.000;0.000;2022-12-11T09:04:19;39.40;;;19.50;;
70761;SDS011;58360;0.000;0.000;2022-12-11T09:06:45;44.75;;;19.13;;
70761;SDS011;58360;0.000;0.000;2022-12-11T09:09:11;37.85;;;18.92;;
70761;SDS011;58360;0.000;0.000;2022-12-11T09:11:37;40.65;;;19.27;;
70761;SDS011;58360;0.000;0.000;2022-12-11T09:14:03;37.28;;;18.08;;
70761;SDS011;58360;0.000;0.000;2022-12-11T09:16:29;34.65;;;17.75;;
70761;SDS011;58360;0.000;0.000;2022-12-11T09:18:56;40.85;;;18.48;;
70761;SDS011;58360;0.000;0.000;2022-12-11T09:21:24;37.92;;;18.15;;
70761;SDS011;58360;0.000;0.000;2022-12-11T09:23:52;44.10;;;19.75;;
70761;SDS011;58360;0.000;0.000;2022-12-11T09:26:23;40.45;;;18.90;;
70761;SDS011;58360;0.000;0.000;2022-12-11T09:28:49;36.15;;;19.27;;
70761;SDS011;58360;0.000;0.000;2022-12-11T09:31:20;35.40;;;18.27;;
70761;SDS011;58360;0.000;0.000;2022-12-11T09:33:51;35.60;;;17.90;;
70761;SDS011;58360;0.000;0.000;2022-12-11T09:36:19;36.70;;;18.05;;
70761;SDS011;58360;0.000;0.000;2022-12-11T09:38:44;38.63;;;17.88;;
70761;SDS011;58360;0.000;0.000;2022-12-11T09:43:47;35.35;;;17.70;;
70761;SDS011;58360;0.000;0.000;2022-12-11T09:46:14;38.67;;;16.88;;
70761;SDS011;58360;0.000;0.000;2022-12-11T09:48:41;38.95;;;17.50;;
70761;SDS011;58360;0.000;0.000;2022-12-11T09:51:17;32.03;;;17.35;;
70761;SDS011;58360;0.000;0.000;2022-12-11T10:07:11;30.63;;;15.63;;
70761;SDS011;58360;0.000;0.000;2022-12-11T10:17:33;31.23;;;15.63;;
70761;SDS011;58360;0.000;0.000;2022-12-11T10:20:15;32.70;;;14.70;;
70761;SDS011;58360;0.000;0.000;2022-12-11T10:22:59;30.85;;;14.65;;
70761;SDS011;58360;0.000;0.000;2022-12-11T10:27:56;32.65;;;15.75;;
70761;SDS011;58360;0.000;0.000;2022-12-11T10:30:29;34.72;;;15.38;;
70761;SDS011;58360;0.000;0.000;2022-12-11T10:35:41;31.23;;;15.65;;
70761;SDS011;58360;0.000;0.000;2022-12-11T10:41:11;30.98;;;14.55;;
70761;SDS011;58360;0.000;0.000;2022-12-11T10:43:45;31.08;;;15.27;;
70761;SDS011;58360;0.000;0.000;2022-12-11T10:46:20;31.00;;;15.35;;
70761;SDS011;58360;0.000;0.000;2022-12-11T10:48:46;32.17;;;15.07;;
70761;SDS011;58360;0.000;0.000;2022-12-11T10:51:52;30.00;;;15.55;;
70761;SDS011;58360;0.000;0.000;2022-12-11T10:56:58;30.25;;;15.20;;
70761;SDS011;58360;0.000;0.000;2022-12-11T11:02:01;34.03;;;15.85;;
70761;SDS011;58360;0.000;0.000;2022-12-11T11:04:30;33.08;;;15.15;;
70761;SDS011;58360;0.000;0.000;2022-12-11T11:07:07;34.72;;;15.82;;
70761;SDS011;58360;0.000;0.000;2022-12-11T11:09:36;32.92;;;15.93;;
70761;SDS011;58360;0.000;0.000;2022-12-11T11:12:02;33.42;;;16.30;;
70761;SDS011;58360;0.000;0.000;2022-12-11T11:14:28;31.48;;;14.90;;
70761;SDS011;58360;0.000;0.000;2022-12-11T11:16:55;32.03;;;14.82;;
70761;SDS011;58360;0.000;0.000;2022-12-11T11:19:23;30.13;;;15.00;;
70761;SDS011;58360;0.000;0.000;2022-12-11T11:21:53;31.45;;;15.07;;
70761;SDS011;58360;0.000;0.000;2022-12-11T11:24:26;31.08;;;14.90;;
70761;SDS011;58360;0.000;0.000;2022-12-11T11:26:54;27.08;;;14.57;;
70761;SDS011;58360;0.000;0.000;2022-12-11T11:29:24;32.40;;;16.00;;
70761;SDS011;58360;0.000;0.000;2022-12-11T11:31:55;30.58;;;15.40;;
70761;SDS011;58360;0.000;0.000;2022-12-11T11:34:21;31.42;;;14.93;;
70761;SDS011;58360;0.000;0.000;2022-12-11T11:36:57;30.40;;;15.95;;
70761;SDS011;58360;0.000;0.000;2022-12-11T11:39:33;34.35;;;16.45;;
70761;SDS011;58360;0.000;0.000;2022-12-11T11:42:07;29.63;;;14.88;;
70761;SDS011;58360;0.000;0.000;2022-12-11T11:47:23;33.45;;;15.15;;
70761;SDS011;58360;0.000;0.000;2022-12-11T11:52:44;28.15;;;13.90;;
70761;SDS011;58360;0.000;0.000;2022-12-11T11:55:16;30.33;;;14.18;;
70761;SDS011;58360;0.000;0.000;2022-12-11T11:58:02;26.98;;;14.25;;
70761;SDS011;58360;0.000;0.000;2022-12-11T12:00:52;29.40;;;13.85;;
70761;SDS011;58360;0.000;0.000;2022-12-11T12:03:19;29.92;;;13.98;;
70761;SDS011;58360;0.000;0.000;2022-12-11T12:06:11;31.58;;;15.32;;
70761;SDS011;58360;0.000;0.000;2022-12-11T12:12:14;30.17;;;13.35;;
70761;SDS011;58360;0.000;0.000;2022-12-11T12:15:11;29.65;;;14.65;;
70761;SDS011;58360;0.000;0.000;2022-12-11T12:25:54;26.35;;;13.05;;
70761;SDS011;58360;0.000;0.000;2022-12-11T12:36:26;31.95;;;14.10;;
70761;SDS011;58360;0.000;0.000;2022-12-11T12:39:24;27.10;;;14.18;;
70761;SDS011;58360;0.000;0.000;2022-12-11T12:47:31;33.47;;;14.18;;
70761;SDS011;58360;0.000;0.000;2022-12-11T12:49:59;42.58;;;13.85;;
70761;SDS011;58360;0.000;0.000;2022-12-11T12:54:56;32.25;;;15.27;;
70761;SDS011;58360;0.000;0.000;2022-12-11T12:57:52;28.80;;;12.93;;
70761;SDS011;58360;0.000;0.000;2022-12-11T13:00:28;27.75;;;13.00;;
70761;SDS011;58360;0.000;0.000;2022-12-11T13:03:10;29.95;;;13.80;;
70761;SDS011;58360;0.000;0.000;2022-12-11T13:05:38;29.05;;;13.70;;
70761;SDS011;58360;0.000;0.000;2022-12-11T13:08:06;35.83;;;14.02;;
70761;SDS011;58360;0.000;0.000;2022-12-11T13:10:34;30.23;;;14.15;;
70761;SDS011;58360;0.000;0.000;2022-12-11T13:13:03;28.60;;;12.48;;
70761;SDS011;58360;0.000;0.000;2022-12-11T13:15:34;27.42;;;13.30;;
70761;SDS011;58360;0.000;0.000;2022-12-11T13:18:28;30.15;;;13.93;;
70761;SDS011;58360;0.000;0.000;2022-12-11T13:20:55;28.65;;;13.95;;
70761;SDS011;58360;0.000;0.000;2022-12-11T13:23:31;33.78;;;14.57;;
70761;SDS011;58360;0.000;0.000;2022-12-11T13:26:02;27.13;;;13.05;;
70761;SDS011;58360;0.000;0.000;2022-12-11T13:31:04;30.85;;;13.85;;
70761;SDS011;58360;0.000;0.000;2022-12-11T13:33:44;30.92;;;13.50;;
70761;SDS011;58360;0.000;0.000;2022-12-11T13:38:45;29.58;;;14.88;;
70761;SDS011;58360;0.000;0.000;2022-12-11T13:41:13;31.52;;;13.90;;
70761;SDS011;58360;0.000;0.000;2022-12-11T13:43:40;35.30;;;13.80;;
70761;SDS011;58360;0.000;0.000;2022-12-11T13:46:08;31.17;;;14.10;;
70761;SDS011;58360;0.000;0.000;2022-12-11T13:48:37;30.90;;;13.25;;
70761;SDS011;58360;0.000;0.000;2022-12-11T13:51:15;30.15;;;14.45;;
70761;SDS011;58360;0.000;0.000;2022-12-11T13:53:42;35.70;;;14.23;;
70761;SDS011;58360;0.000;0.000;2022-12-11T13:56:19;32.47;;;14.80;;
70761;SDS011;58360;0.000;0.000;2022-12-11T13:58:46;40.20;;;15.15;;
70761;SDS011;58360;0.000;0.000;2022-12-11T14:01:19;29.27;;;13.00;;
70761;SDS011;58360;0.000;0.000;2022-12-11T14:04:01;29.55;;;12.65;;
70761;SDS011;58360;0.000;0.000;2022-12-11T14:06:32;28.50;;;13.02;;
70761;SDS011;58360;0.000;0.000;2022-12-11T14:08:59;27.35;;;14.18;;
70761;SDS011;58360;0.000;0.000;2022-12-11T14:11:33;30.30;;;14.05;;
70761;SDS011;58360;0.000;0.000;2022-12-11T14:14:05;31.33;;;13.88;;
70761;SDS011;58360;0.000;0.000;2022-12-11T14:16:38;32.67;;;13.95;;
70761;SDS011;58360;0.000;0.000;2022-12-11T14:19:05;30.80;;;13.65;;
70761;SDS011;58360;0.000;0.000;2022-12-11T14:21:32;28.67;;;13.82;;
70761;SDS011;58360;0.000;0.000;2022-12-11T14:23:59;31.40;;;13.85;;
70761;SDS011;58360;0.000;0.000;2022-12-11T14:26:34;33.05;;;14.45;;
70761;SDS011;58360;0.000;0.000;2022-12-11T14:29:04;27.58;;;13.25;;
70761;SDS011;58360;0.000;0.000;2022-12-11T14:31:35;29.55;;;14.00;;
70761;SDS011;58360;0.000;0.000;2022-12-11T14:34:06;32.28;;;15.18;;
70761;SDS011;58360;0.000;0.000;2022-12-11T14:36:35;31.77;;;14.73;;
70761;SDS011;58360;0.000;0.000;2022-12-11T14:39:06;32.55;;;15.52;;
70761;SDS011;58360;0.000;0.000;2022-12-11T14:44:27;33.17;;;14.75;;
70761;SDS011;58360;0.000;0.000;2022-12-11T14:46:59;30.05;;;13.18;;
70761;SDS011;58360;0.000;0.000;2022-12-11T14:52:16;31.98;;;14.48;;
70761;SDS011;58360;0.000;0.000;2022-12-11T14:54:45;35.30;;;16.33;;
70761;SDS011;58360;0.000;0.000;2022-12-11T14:57:24;36.47;;;16.00;;
70761;SDS011;58360;0.000;0.000;2022-12-11T14:59:53;31.17;;;15.07;;
70761;SDS011;58360;0.000;0.000;2022-12-11T15:07:36;28.25;;;14.05;;
70761;SDS011;58360;0.000;0.000;2022-12-11T15:10:02;33.72;;;14.68;;
70761;SDS011;58360;0.000;0.000;2022-12-11T15:12:28;29.60;;;15.00;;
70761;SDS011;58360;0.000;0.000;2022-12-11T15:15:02;29.25;;;14.65;;
70761;SDS011;58360;0.000;0.000;2022-12-11T15:17:31;29.15;;;14.23;;
70761;SDS011;58360;0.000;0.000;2022-12-11T15:20:02;29.55;;;13.95;;
70761;SDS011;58360;0.000;0.000;2022-12-11T15:22:35;27.35;;;13.15;;
70761;SDS011;58360;0.000;0.000;2022-12-11T15:25:01;29.77;;;12.23;;
70761;SDS011;58360;0.000;0.000;2022-12-11T15:27:32;30.30;;;13.70;;
70761;SDS011;58360;0.000;0.000;2022-12-11T15:33:43;32.75;;;14.05;;
70761;SDS011;58360;0.000;0.000;2022-12-11T15:35:37;31.27;;;13.77;;
70761;SDS011;58360;0.000;0.000;2022-12-11T15:38:04;32.60;;;14.57;;
70761;SDS011;58360;0.000;0.000;2022-12-11T15:40:30;34.60;;;14.85;;
70761;SDS011;58360;0.000;0.000;2022-12-11T15:42:56;30.95;;;14.25;;
70761;SDS011;58360;0.000;0.000;2022-12-11T15:45:25;35.92;;;15.07;;
70761;SDS011;58360;0.000;0.000;2022-12-11T15:47:54;33.13;;;14.80;;
70761;SDS011;58360;0.000;0.000;2022-12-11T15:52:48;37.30;;;15.15;;
70761;SDS011;58360;0.000;0.000;2022-12-11T15:55:16;34.58;;;15.23;;
70761;SDS011;58360;0.000;0.000;2022-12-11T15:57:44;38.50;;;16.65;;
70761;SDS011;58360;0.000;0.000;2022-12-11T16:00:15;37.65;;;16.63;;
70761;SDS011;58360;0.000;0.000;2022-12-11T16:02:45;37.05;;;15.88;;
70761;SDS011;58360;0.000;0.000;2022-12-11T16:05:12;37.97;;;16.83;;
70761;SDS011;58360;0.000;0.000;2022-12-11T16:07:38;37.40;;;17.85;;
70761;SDS011;58360;0.000;0.000;2022-12-11T16:10:04;37.13;;;16.27;;
70761;SDS011;58360;0.000;0.000;2022-12-11T16:12:31;41.65;;;16.92;;
70761;SDS011;58360;0.000;0.000;2022-12-11T16:14:57;37.47;;;18.40;;
70761;SDS011;58360;0.000;0.000;2022-12-11T16:17:22;44.03;;;19.02;;
70761;SDS011;58360;0.000;0.000;2022-12-11T16:19:48;43.25;;;19.30;;
70761;SDS011;58360;0.000;0.000;2022-12-11T16:22:14;38.92;;;17.23;;
70761;SDS011;58360;0.000;0.000;2022-12-11T16:24:40;40.50;;;17.00;;
70761;SDS011;58360;0.000;0.000;2022-12-11T16:27:06;36.92;;;16.70;;
70761;SDS011;58360;0.000;0.000;2022-12-11T16:29:37;40.55;;;17.85;;
70761;SDS011;58360;0.000;0.000;2022-12-11T16:32:05;37.20;;;17.50;;
70761;SDS011;58360;0.000;0.000;2022-12-11T16:34:32;36.80;;;16.77;;
70761;SDS011;58360;0.000;0.000;2022-12-11T16:36:58;35.90;;;16.58;;
70761;SDS011;58360;0.000;0.000;2022-12-11T16:39:24;40.38;;;17.38;;
70761;SDS011;58360;0.000;0.000;2022-12-11T16:41:50;39.60;;;16.48;;